createdAt,value
2019-03-04T00:01:46.307Z,12.49
2019-03-04T00:04:17.567Z,12.44
2019-03-04T00:06:48.857Z,12.48
2019-03-04T00:09:20.145Z,12.46
2019-03-04T00:11:51.442Z,12.50
2019-03-04T00:14:22.741Z,12.47
2019-03-04T00:16:54.048Z,12.53
2019-03-04T00:19:25.359Z,12.47
2019-03-04T00:21:56.660Z,12.53
2019-03-04T00:24:27.941Z,12.44
2019-03-04T00:26:59.233Z,12.57
2019-03-04T00:29:30.526Z,12.54
2019-03-04T00:32:01.819Z,12.53
2019-03-04T00:34:33.106Z,12.55
2019-03-04T00:37:04.472Z,12.56
2019-03-04T00:39:35.741Z,12.54
2019-03-04T00:42:07.038Z,12.54
2019-03-04T00:44:38.332Z,12.56
2019-03-04T00:47:09.667Z,12.52
2019-03-04T00:49:40.919Z,12.46
2019-03-04T00:52:12.192Z,12.42
2019-03-04T00:54:43.484Z,12.44
2019-03-04T00:57:14.739Z,12.36
2019-03-04T00:59:46.040Z,12.27
2019-03-04T01:02:17.339Z,12.21
2019-03-04T01:04:48.616Z,12.14
2019-03-04T01:07:19.910Z,12.17
2019-03-04T01:09:51.287Z,12.14
2019-03-04T01:12:22.544Z,12.22
2019-03-04T01:14:53.806Z,12.20
2019-03-04T01:17:25.139Z,12.18
2019-03-04T01:19:56.483Z,12.17
2019-03-04T01:22:27.775Z,12.25
2019-03-04T01:24:59.081Z,12.19
2019-03-04T01:27:30.417Z,12.22
2019-03-04T01:30:05.767Z,12.37
2019-03-04T01:32:37.090Z,12.35
2019-03-04T01:35:08.571Z,12.37
2019-03-04T01:37:39.827Z,12.47
2019-03-04T01:40:14.915Z,12.46
2019-03-04T01:42:49.441Z,12.54
2019-03-04T01:45:20.758Z,12.57
2019-03-04T01:47:52.068Z,12.61
2019-03-04T01:50:23.346Z,12.59
2019-03-04T01:52:54.672Z,12.64
2019-03-04T01:55:25.955Z,12.57
2019-03-04T01:57:57.244Z,12.61
2019-03-04T02:00:28.750Z,12.59
2019-03-04T02:03:00.055Z,12.63
2019-03-04T02:05:31.348Z,12.65
2019-03-04T02:08:02.619Z,12.56
2019-03-04T02:10:33.924Z,12.60
2019-03-04T02:13:05.294Z,12.63
2019-03-04T02:15:36.583Z,12.67
2019-03-04T02:18:08.007Z,12.60
2019-03-04T02:20:39.340Z,12.56
2019-03-04T02:23:10.605Z,12.52
2019-03-04T02:26:20.569Z,12.59
2019-03-04T02:28:51.896Z,12.51
2019-03-04T02:31:23.225Z,12.56
2019-03-04T02:33:54.571Z,12.53
2019-03-04T02:36:25.851Z,12.49
2019-03-04T02:38:57.137Z,12.41
2019-03-04T02:41:28.481Z,12.47
2019-03-04T02:43:59.762Z,12.46
2019-03-04T02:46:31.069Z,12.43
2019-03-04T02:49:02.359Z,12.47
2019-03-04T02:51:33.618Z,12.49
2019-03-04T02:54:05.038Z,12.40
2019-03-04T02:56:36.363Z,12.43
2019-03-04T02:59:07.608Z,12.44
2019-03-04T03:01:38.918Z,12.47
2019-03-04T03:04:10.195Z,12.47
2019-03-04T03:06:41.475Z,12.42
2019-03-04T03:09:14.004Z,12.47
2019-03-04T03:11:45.297Z,12.45
2019-03-04T03:14:16.629Z,12.44
2019-03-04T03:16:47.953Z,12.47
2019-03-04T03:19:19.258Z,12.53
2019-03-04T03:21:50.533Z,12.51
2019-03-04T03:24:21.844Z,12.53
2019-03-04T03:26:53.151Z,12.47
2019-03-04T03:29:24.459Z,12.49
2019-03-04T03:31:55.725Z,12.55
2019-03-04T03:34:27.002Z,12.57
2019-03-04T03:36:58.283Z,12.50
2019-03-04T03:39:29.552Z,12.53
2019-03-04T03:42:00.816Z,12.56
2019-03-04T03:44:32.083Z,12.61
2019-03-04T03:47:06.713Z,12.63
2019-03-04T03:49:38.011Z,12.65
2019-03-04T03:52:09.273Z,12.71
2019-03-04T03:54:40.621Z,12.76
2019-03-04T03:57:11.857Z,12.89
2019-03-04T03:59:43.292Z,12.93
2019-03-04T04:02:14.628Z,13.08
2019-03-04T04:04:45.866Z,13.08
2019-03-04T04:07:17.147Z,13.00
2019-03-04T04:09:48.422Z,13.00
2019-03-04T04:12:19.642Z,13.03
2019-03-04T04:14:50.949Z,13.01
2019-03-04T04:17:22.199Z,13.01
2019-03-04T04:19:53.460Z,12.93
2019-03-04T04:22:24.722Z,12.89
2019-03-04T04:24:55.978Z,12.87
2019-03-04T04:27:27.218Z,12.81
2019-03-04T04:29:58.457Z,12.74
2019-03-04T04:32:29.707Z,12.73
2019-03-04T04:35:00.914Z,12.72
2019-03-04T04:37:32.057Z,12.72
2019-03-04T04:40:03.275Z,12.73
2019-03-04T04:42:34.510Z,12.91
2019-03-04T04:45:05.954Z,13.00
2019-03-04T04:47:37.238Z,12.95
2019-03-04T04:50:10.854Z,13.00
2019-03-04T04:52:42.161Z,13.04
2019-03-04T04:55:13.504Z,13.00
2019-03-04T04:57:44.766Z,13.06
2019-03-04T05:00:16.206Z,13.08
2019-03-04T05:02:47.463Z,13.11
2019-03-04T05:05:18.751Z,13.16
2019-03-04T05:07:50.038Z,13.02
2019-03-04T05:10:21.371Z,13.14
2019-03-04T05:12:52.750Z,13.10
2019-03-04T05:15:24.056Z,13.14
2019-03-04T05:17:55.443Z,13.05
2019-03-04T05:20:26.772Z,13.16
2019-03-04T05:22:58.180Z,13.13
2019-03-04T05:25:29.451Z,13.10
2019-03-04T05:28:00.719Z,13.14
2019-03-04T05:30:32.006Z,13.04
2019-03-04T05:33:03.300Z,13.07
2019-03-04T05:35:34.584Z,13.09
2019-03-04T05:38:05.815Z,13.04
2019-03-04T05:40:37.164Z,12.96
2019-03-04T05:43:08.473Z,12.95
2019-03-04T05:45:39.733Z,12.94
2019-03-04T05:48:11.031Z,12.94
2019-03-04T05:50:42.324Z,12.90
2019-03-04T05:53:13.583Z,12.87
2019-03-04T05:55:44.873Z,12.87
2019-03-04T05:58:16.203Z,12.90
2019-03-04T06:00:47.521Z,12.86
2019-03-04T06:03:18.956Z,12.82
2019-03-04T06:05:50.197Z,12.85
2019-03-04T06:08:21.489Z,12.80
2019-03-04T06:10:52.801Z,12.81
2019-03-04T06:13:24.074Z,12.78
2019-03-04T06:15:55.383Z,12.58
2019-03-04T06:18:26.745Z,12.42
2019-03-04T06:20:58.026Z,12.35
2019-03-04T06:23:29.290Z,12.19
2019-03-04T06:26:00.588Z,11.80
2019-03-04T06:28:31.871Z,10.78
2019-03-04T06:31:03.137Z,9.91
2019-03-04T06:33:34.398Z,9.48
2019-03-04T06:36:05.610Z,8.94
2019-03-04T06:38:36.836Z,8.60
2019-03-04T06:41:08.105Z,8.37
2019-03-04T06:43:39.383Z,7.97
2019-03-04T06:46:10.624Z,7.87
2019-03-04T06:48:41.939Z,7.80
2019-03-04T06:51:20.018Z,7.64
2019-03-04T06:54:17.516Z,7.58
2019-03-04T06:57:10.299Z,7.54
2019-03-04T07:00:48.594Z,7.37
2019-03-04T07:04:02.164Z,7.47
2019-03-04T07:06:33.489Z,7.51
2019-03-04T07:09:30.042Z,7.59
2019-03-04T07:12:01.345Z,7.70
2019-03-04T07:14:32.650Z,7.72
2019-03-04T07:17:04.024Z,7.91
2019-03-04T07:19:38.216Z,7.97
2019-03-04T07:22:11.136Z,8.02
2019-03-04T07:24:42.476Z,8.07
2019-03-04T07:27:13.752Z,8.21
2019-03-04T07:29:45.202Z,8.32
2019-03-04T07:32:16.480Z,8.38
2019-03-04T07:34:47.777Z,8.48
2019-03-04T07:37:19.023Z,8.61
2019-03-04T07:39:50.289Z,8.66
2019-03-04T07:42:21.539Z,8.69
2019-03-04T07:44:52.815Z,8.77
2019-03-04T07:47:24.062Z,8.79
2019-03-04T07:49:55.326Z,9.00
2019-03-04T07:52:26.599Z,9.07
2019-03-04T07:54:57.841Z,9.17
2019-03-04T07:57:31.696Z,9.30
2019-03-04T08:00:02.972Z,9.40
2019-03-04T08:02:34.245Z,9.36
2019-03-04T08:05:06.206Z,9.38
2019-03-04T08:07:46.800Z,9.48
2019-03-04T08:11:30.806Z,9.34
2019-03-04T08:14:03.231Z,9.41
2019-03-04T08:16:36.227Z,9.38
2019-03-04T08:19:07.712Z,9.46
2019-03-04T08:21:39.013Z,9.54
2019-03-04T08:24:10.339Z,9.58
2019-03-04T08:26:41.626Z,9.64
2019-03-04T08:29:13.543Z,9.71
2019-03-04T08:31:44.813Z,9.67
2019-03-04T08:34:16.078Z,9.68
2019-03-04T08:36:47.368Z,9.68
2019-03-04T08:39:18.705Z,9.76
2019-03-04T08:41:49.972Z,9.73
2019-03-04T08:44:21.536Z,9.77
2019-03-04T08:46:52.816Z,9.83
2019-03-04T08:49:24.097Z,9.87
2019-03-04T08:51:55.381Z,10.00
2019-03-04T08:54:26.687Z,10.00
2019-03-04T08:57:03.890Z,10.09
2019-03-04T08:59:30.951Z,10.42
2019-03-04T09:02:02.270Z,10.88
2019-03-04T09:04:33.595Z,11.07
2019-03-04T09:07:04.867Z,11.61
2019-03-04T09:09:36.112Z,12.16
2019-03-04T09:12:07.413Z,11.42
2019-03-04T09:14:38.682Z,11.13
2019-03-04T09:17:10.736Z,10.82
2019-03-04T09:19:42.042Z,10.54
2019-03-04T09:22:13.286Z,10.48
2019-03-04T09:24:44.566Z,10.42
2019-03-04T09:27:15.895Z,10.31
2019-03-04T09:29:47.198Z,10.23
2019-03-04T09:32:18.513Z,10.20
2019-03-04T09:34:49.776Z,10.17
2019-03-04T09:37:21.104Z,10.11
2019-03-04T09:39:52.442Z,10.06
2019-03-04T09:42:25.825Z,10.04
2019-03-04T09:44:57.206Z,10.07
2019-03-04T09:47:28.483Z,10.01
2019-03-04T09:49:59.810Z,9.88
2019-03-04T09:52:31.133Z,9.76
2019-03-04T09:55:02.478Z,9.64
2019-03-04T09:57:33.754Z,9.57
2019-03-04T10:00:05.520Z,9.39
2019-03-04T10:02:44.899Z,9.22
2019-03-04T10:05:51.937Z,9.06
2019-03-04T10:09:06.493Z,9.06
2019-03-04T10:12:03.683Z,9.03
2019-03-04T10:15:35.204Z,9.01
2019-03-04T10:18:50.568Z,8.99
2019-03-04T10:22:15.002Z,9.05
2019-03-04T10:25:19.239Z,9.09
2019-03-04T10:28:57.170Z,9.11
2019-03-04T10:32:20.385Z,9.11
2019-03-04T10:35:41.274Z,9.15
2019-03-04T10:39:13.815Z,9.07
2019-03-04T10:42:28.115Z,9.17
2019-03-04T10:45:44.964Z,9.08
2019-03-04T10:48:16.274Z,9.18
2019-03-04T10:50:47.679Z,9.20
2019-03-04T10:53:18.969Z,9.25
2019-03-04T10:55:50.244Z,9.30
2019-03-04T10:58:21.520Z,9.29
2019-03-04T11:00:52.779Z,9.35
2019-03-04T11:03:24.094Z,9.31
2019-03-04T11:05:55.954Z,9.43
2019-03-04T11:08:27.301Z,9.46
2019-03-04T11:10:58.608Z,9.50
2019-03-04T11:13:31.954Z,9.59
2019-03-04T11:16:03.229Z,9.57
2019-03-04T11:18:34.541Z,9.63
2019-03-04T11:21:06.394Z,9.60
2019-03-04T11:23:37.698Z,9.48
2019-03-04T11:26:09.096Z,9.38
2019-03-04T11:28:40.379Z,9.17
2019-03-04T11:31:11.630Z,8.51
2019-03-04T11:33:42.962Z,8.21
2019-03-04T11:36:14.331Z,7.97
2019-03-04T11:38:48.941Z,7.87
2019-03-04T11:41:22.623Z,7.70
2019-03-04T11:43:53.916Z,7.69
2019-03-04T11:46:25.393Z,7.71
2019-03-04T11:48:56.677Z,7.57
2019-03-04T11:51:27.948Z,7.41
2019-03-04T11:53:59.203Z,7.42
2019-03-04T11:56:30.496Z,7.45
2019-03-04T11:59:01.737Z,7.36
2019-03-04T12:01:42.861Z,7.40
2019-03-04T12:04:14.118Z,7.37
2019-03-04T12:06:45.370Z,7.38
2019-03-04T12:09:17.163Z,7.41
2019-03-04T12:11:48.426Z,7.58
2019-03-04T12:14:19.697Z,7.75
2019-03-04T12:16:51.012Z,7.92
2019-03-04T12:19:22.259Z,8.16
2019-03-04T12:21:53.603Z,8.24
2019-03-04T12:24:24.888Z,8.32
2019-03-04T12:26:56.130Z,8.29
2019-03-04T12:29:27.462Z,8.11
2019-03-04T12:32:14.300Z,8.14
2019-03-04T12:34:45.537Z,8.00
2019-03-04T12:37:16.824Z,7.96
2019-03-04T12:39:48.208Z,7.96
2019-03-04T12:42:19.418Z,7.91
2019-03-04T12:44:50.650Z,8.04
2019-03-04T12:47:21.907Z,7.82
2019-03-04T12:49:53.142Z,7.89
2019-03-04T12:52:24.384Z,7.76
2019-03-04T12:54:55.638Z,7.73
2019-03-04T12:57:26.900Z,7.73
2019-03-04T12:59:58.205Z,7.73
2019-03-04T13:02:29.469Z,7.90
2019-03-04T13:05:01.611Z,7.88
2019-03-04T13:07:36.168Z,7.79
2019-03-04T13:10:08.177Z,7.79
2019-03-04T13:12:39.445Z,7.79
2019-03-04T13:15:19.164Z,7.84
2019-03-04T13:17:52.321Z,7.91
2019-03-04T13:20:23.700Z,7.84
2019-03-04T13:22:55.033Z,7.65
2019-03-04T13:25:26.330Z,7.66
2019-03-04T13:28:07.504Z,7.60
2019-03-04T13:30:30.664Z,7.42
2019-03-04T13:33:01.974Z,7.36
2019-03-04T13:35:33.311Z,7.36
2019-03-04T13:38:04.711Z,7.36
2019-03-04T13:40:36.118Z,7.37
2019-03-04T13:43:07.506Z,7.52
2019-03-04T13:45:38.916Z,7.57
2019-03-04T13:48:10.359Z,7.70
2019-03-04T13:50:41.689Z,7.64
2019-03-04T13:53:12.982Z,7.71
2019-03-04T13:55:44.290Z,7.59
2019-03-04T13:58:15.609Z,7.55
2019-03-04T14:00:46.887Z,7.50
2019-03-04T14:03:18.168Z,7.58
2019-03-04T14:05:49.467Z,7.62
2019-03-04T14:08:20.971Z,7.57
2019-03-04T14:10:52.242Z,7.68
2019-03-04T14:13:23.793Z,7.74
2019-03-04T14:15:55.207Z,8.05
2019-03-04T14:18:26.529Z,8.40
2019-03-04T14:20:57.818Z,8.87
2019-03-04T14:23:29.095Z,9.57
2019-03-04T14:26:00.362Z,9.87
2019-03-04T14:28:31.650Z,9.74
2019-03-04T14:31:02.952Z,9.36
2019-03-04T14:33:34.241Z,9.31
2019-03-04T14:36:05.549Z,9.20
2019-03-04T14:38:36.831Z,9.10
2019-03-04T14:41:08.141Z,8.99
2019-03-04T14:43:39.438Z,8.93
2019-03-04T14:46:21.739Z,9.04
2019-03-04T14:48:53.097Z,9.12
2019-03-04T14:51:24.398Z,9.16
2019-03-04T14:53:55.636Z,9.21
2019-03-04T14:56:26.962Z,9.16
2019-03-04T14:59:10.263Z,9.24
2019-03-04T15:01:31.315Z,9.46
2019-03-04T15:04:02.654Z,9.64
2019-03-04T15:06:33.947Z,9.78
2019-03-04T15:09:08.107Z,9.68
2019-03-04T15:11:39.442Z,9.63
2019-03-04T15:14:10.745Z,9.36
2019-03-04T15:16:42.070Z,9.25
2019-03-04T15:19:13.369Z,9.28
2019-03-04T15:21:44.648Z,9.08
2019-03-04T15:24:15.933Z,9.19
2019-03-04T15:26:47.342Z,9.08
2019-03-04T15:29:18.607Z,9.04
2019-03-04T15:31:49.964Z,9.15
2019-03-04T15:34:21.243Z,9.07
2019-03-04T15:36:52.542Z,9.05
2019-03-04T15:39:23.963Z,9.04
2019-03-04T15:41:55.640Z,9.08
2019-03-04T15:44:26.949Z,9.06
2019-03-04T15:46:58.193Z,9.17
2019-03-04T15:49:29.528Z,9.00
2019-03-04T15:52:00.848Z,9.01
2019-03-04T15:54:32.159Z,8.98
2019-03-04T15:57:05.094Z,9.05
2019-03-04T15:59:36.371Z,9.00
2019-03-04T16:02:13.633Z,8.98
2019-03-04T16:04:44.907Z,8.98
2019-03-04T16:07:16.314Z,9.01
2019-03-04T16:09:47.638Z,9.00
2019-03-04T16:12:22.043Z,8.98
2019-03-04T16:14:53.347Z,8.97
2019-03-04T16:17:24.573Z,8.95
2019-03-04T16:19:55.845Z,8.89
2019-03-04T16:22:29.163Z,8.85
2019-03-04T16:25:00.454Z,8.79
2019-03-04T16:27:31.701Z,8.74
2019-03-04T16:30:02.933Z,8.81
2019-03-04T16:32:34.209Z,8.77
2019-03-04T16:35:05.689Z,8.82
2019-03-04T16:37:37.026Z,8.83
2019-03-04T16:40:11.956Z,8.80
2019-03-04T16:42:43.269Z,8.77
2019-03-04T16:45:17.296Z,8.81
2019-03-04T16:47:49.242Z,8.89
2019-03-04T16:50:20.561Z,8.88
2019-03-04T16:52:52.067Z,8.83
2019-03-04T16:55:23.326Z,8.72
2019-03-04T16:57:54.620Z,8.59
2019-03-04T17:00:27.151Z,8.61
2019-03-04T17:02:58.408Z,8.57
2019-03-04T17:05:29.821Z,8.51
2019-03-04T17:08:01.080Z,8.45
2019-03-04T17:10:32.674Z,8.38
2019-03-04T17:13:03.986Z,8.34
2019-03-04T17:15:35.265Z,8.26
2019-03-04T17:18:06.806Z,8.25
2019-03-04T17:20:38.056Z,8.23
2019-03-04T17:23:09.533Z,8.19
2019-03-04T17:25:40.898Z,8.05
2019-03-04T17:28:12.271Z,8.02
2019-03-04T17:30:43.701Z,8.03
2019-03-04T17:33:15.408Z,7.90
2019-03-04T17:35:46.755Z,7.88
2019-03-04T17:38:18.067Z,7.81
2019-03-04T17:40:49.374Z,7.87
2019-03-04T17:43:20.675Z,7.87
2019-03-04T17:45:51.962Z,7.83
2019-03-04T17:48:23.217Z,7.84
2019-03-04T17:50:54.582Z,7.78
2019-03-04T17:53:25.796Z,7.73
2019-03-04T17:55:57.052Z,7.71
2019-03-04T17:58:28.302Z,7.69
2019-03-04T18:00:59.595Z,7.71
2019-03-04T18:03:30.848Z,7.65
2019-03-04T18:06:02.088Z,7.57
2019-03-04T18:08:33.378Z,7.55
2019-03-04T18:11:04.691Z,7.53
2019-03-04T18:13:36.185Z,7.50
2019-03-04T18:16:07.532Z,7.52
2019-03-04T18:18:38.790Z,7.52
2019-03-04T18:21:10.189Z,7.56
2019-03-04T18:23:41.501Z,7.49
2019-03-04T18:26:21.509Z,7.47
2019-03-04T18:29:45.963Z,7.41
2019-03-04T18:33:17.466Z,7.40
2019-03-04T18:36:52.926Z,7.40
2019-03-04T18:40:04.629Z,7.32
2019-03-04T18:43:30.067Z,7.30
2019-03-04T18:46:53.300Z,7.25
2019-03-04T18:49:24.606Z,7.23
2019-03-04T18:51:56.066Z,7.26
2019-03-04T18:54:27.828Z,7.27
2019-03-04T18:56:59.149Z,7.26
2019-03-04T18:59:30.394Z,7.20
2019-03-04T19:02:04.720Z,7.23
2019-03-04T19:04:36.040Z,7.21
2019-03-04T19:07:07.406Z,7.08
2019-03-04T19:09:38.679Z,7.15
2019-03-04T19:12:10.079Z,7.11
2019-03-04T19:14:41.475Z,7.10
2019-03-04T19:17:12.787Z,7.00
2019-03-04T19:19:44.294Z,7.14
2019-03-04T19:22:15.839Z,7.00
2019-03-04T19:24:47.908Z,6.97
2019-03-04T19:27:19.298Z,6.95
2019-03-04T19:29:50.592Z,6.97
2019-03-04T19:32:21.985Z,6.90
2019-03-04T19:34:53.316Z,6.99
2019-03-04T19:37:24.666Z,6.96
2019-03-04T19:39:55.954Z,6.96
2019-03-04T19:42:27.276Z,7.02
2019-03-04T19:44:58.625Z,6.98
2019-03-04T19:47:30.078Z,6.95
2019-03-04T19:50:04.537Z,7.05
2019-03-04T19:52:35.848Z,7.07
2019-03-04T19:55:09.107Z,7.06
2019-03-04T19:57:40.654Z,7.16
2019-03-04T20:00:16.140Z,7.28
2019-03-04T20:02:48.681Z,7.40
2019-03-04T20:05:23.218Z,7.40
2019-03-04T20:07:54.502Z,7.40
2019-03-04T20:10:25.833Z,7.49
2019-03-04T20:12:57.190Z,7.46
2019-03-04T20:15:28.559Z,7.41
2019-03-04T20:18:00.023Z,7.30
2019-03-04T20:20:31.306Z,7.27
2019-03-04T20:23:02.587Z,7.20
2019-03-04T20:25:33.889Z,7.24
2019-03-04T20:28:05.240Z,7.19
2019-03-04T20:30:36.623Z,7.15
2019-03-04T20:33:08.010Z,7.14
2019-03-04T20:35:39.357Z,7.22
2019-03-04T20:38:10.746Z,7.17
2019-03-04T20:40:42.074Z,7.20
2019-03-04T20:43:13.502Z,7.25
2019-03-04T20:45:44.858Z,7.27
2019-03-04T20:48:16.140Z,7.26
2019-03-04T20:50:47.591Z,7.17
2019-03-04T20:53:18.984Z,7.23
2019-03-04T20:55:50.327Z,7.22
2019-03-04T20:58:21.670Z,7.21
2019-03-04T21:00:52.956Z,7.17
2019-03-04T21:03:34.375Z,7.27
2019-03-04T21:05:57.387Z,7.23
2019-03-04T21:08:28.712Z,7.30
2019-03-04T21:11:00.294Z,7.28
2019-03-04T21:13:35.908Z,7.31
2019-03-04T21:16:06.370Z,7.37
2019-03-04T21:18:41.276Z,7.29
2019-03-04T21:21:12.679Z,7.37
2019-03-04T21:23:44.133Z,7.32
2019-03-04T21:26:23.008Z,7.34
2019-03-04T21:29:30.141Z,7.37
2019-03-04T21:32:32.567Z,7.24
2019-03-04T21:36:01.139Z,7.03
2019-03-04T21:38:34.777Z,6.54
2019-03-04T21:41:39.152Z,6.25
2019-03-04T21:45:26.339Z,6.08
2019-03-04T21:48:26.991Z,6.00
2019-03-04T21:51:38.209Z,5.97
2019-03-04T21:54:03.998Z,5.95
2019-03-04T21:57:10.975Z,6.05
2019-03-04T21:59:42.303Z,6.11
2019-03-04T22:02:23.180Z,6.09
2019-03-04T22:04:55.038Z,6.02
2019-03-04T22:07:26.325Z,5.99
2019-03-04T22:09:57.565Z,6.07
2019-03-04T22:12:30.600Z,5.94
2019-03-04T22:15:01.946Z,5.94
2019-03-04T22:17:33.345Z,6.00
2019-03-04T22:20:04.975Z,5.96
2019-03-04T22:22:36.244Z,5.80
2019-03-04T22:25:08.575Z,5.83
2019-03-04T22:27:39.837Z,5.84
2019-03-04T22:30:15.107Z,5.78
2019-03-04T22:32:46.567Z,5.76
2019-03-04T22:35:18.099Z,5.76
2019-03-04T22:37:49.384Z,5.82
2019-03-04T22:40:21.594Z,5.83
2019-03-04T22:42:52.850Z,5.92
2019-03-04T22:45:24.114Z,5.94
2019-03-04T22:47:55.430Z,6.04
2019-03-04T22:50:26.750Z,6.01
2019-03-04T22:52:58.016Z,6.03
2019-03-04T22:55:32.792Z,6.04
2019-03-04T22:58:04.108Z,6.10
2019-03-04T23:01:34.109Z,6.13
2019-03-04T23:04:20.941Z,6.21
2019-03-04T23:07:20.800Z,6.25
2019-03-04T23:10:24.671Z,6.24
2019-03-04T23:13:30.933Z,6.24
2019-03-04T23:16:04.377Z,6.32
2019-03-04T23:18:35.644Z,6.30
2019-03-04T23:21:07.113Z,6.34
2019-03-04T23:23:38.410Z,6.37
2019-03-04T23:26:09.692Z,6.36
2019-03-04T23:28:40.975Z,6.40
2019-03-04T23:31:12.705Z,6.44
2019-03-04T23:33:43.995Z,6.46
2019-03-04T23:36:15.299Z,6.49
2019-03-04T23:38:46.564Z,6.49
2019-03-04T23:41:17.978Z,6.61
2019-03-04T23:43:49.286Z,6.65
2019-03-04T23:46:20.526Z,6.57
2019-03-04T23:48:51.752Z,6.58
2019-03-04T23:51:23.051Z,6.65
2019-03-04T23:53:54.351Z,6.70
2019-03-04T23:56:25.603Z,6.72
2019-03-04T23:58:56.950Z,6.71
